Time,TemperatureF,DewpointF,PressureIn,WindDirection,WindDirectionDegrees,WindSpeedMPH,WindSpeedGustMPH,Humidity,HourlyPrecipIn,Conditions,Clouds,dailyrainin,SoftwareType,DateUTC
2013-01-19 00:13:00,38.4,35.0,30.39,North,352,0.0,1.0,87,0.00,,,0.00,weatherlink.com 1.10,2013-01-19 06:13:00,
2013-01-19 00:28:00,37.7,35.0,30.38,North,352,0.0,0.0,90,0.00,,,0.00,weatherlink.com 1.10,2013-01-19 06:28:00,
2013-01-19 00:43:00,37.5,35.0,30.38,North,353,0.0,0.0,90,0.00,,,0.00,weatherlink.com 1.10,2013-01-19 06:43:00,
2013-01-19 00:58:00,37.4,35.0,30.38,North,352,0.0,0.0,90,0.00,,,0.00,weatherlink.com 1.10,2013-01-19 06:58:00,
2013-01-19 01:14:00,37.3,35.0,30.38,North,353,0.0,0.0,90,0.00,,,0.00,weatherlink.com 1.10,2013-01-19 07:14:00,
2013-01-19 01:30:00,36.9,35.0,30.38,North,353,0.0,0.0,91,0.00,,,0.00,weatherlink.com 1.10,2013-01-19 07:30:00,
2013-01-19 01:44:00,36.8,35.0,30.38,North,353,0.0,0.0,91,0.00,,,0.00,weatherlink.com 1.10,2013-01-19 07:44:00,
2013-01-19 01:59:00,36.7,34.0,30.38,North,352,0.0,0.0,91,0.00,,,0.00,weatherlink.com 1.10,2013-01-19 07:59:00,
2013-01-19 02:14:00,36.7,35.0,30.38,NNE,32,0.0,1.0,92,0.00,,,0.00,weatherlink.com 1.10,2013-01-19 08:14:00,
2013-01-19 02:29:00,37.3,35.0,30.37,NE,39,0.0,1.0,90,0.00,,,0.00,weatherlink.com 1.10,2013-01-19 08:29:00,
2013-01-19 02:44:00,37.9,35.0,30.37,NE,37,0.0,1.0,89,0.00,,,0.00,weatherlink.com 1.10,2013-01-19 08:44:00,
2013-01-19 02:59:00,38.7,35.0,30.37,NE,37,0.0,1.0,87,0.00,,,0.00,weatherlink.com 1.10,2013-01-19 08:59:00,
2013-01-19 03:14:00,40.0,36.0,30.37,NE,37,1.0,1.0,84,0.00,,,0.00,weatherlink.com 1.10,2013-01-19 09:14:00,
2013-01-19 03:29:00,40.3,35.0,30.36,NNE,32,0.0,2.0,82,0.00,,,0.00,weatherlink.com 1.10,2013-01-19 09:29:00,
2013-01-19 03:44:00,40.3,36.0,30.36,NE,43,0.0,1.0,83,0.00,,,0.00,weatherlink.com 1.10,2013-01-19 09:44:00,
2013-01-19 03:59:00,40.2,35.0,30.36,NNE,32,0.0,1.0,83,0.00,,,0.00,weatherlink.com 1.10,2013-01-19 09:59:00,
2013-01-19 04:14:00,40.0,36.0,30.36,ENE,78,0.0,1.0,84,0.00,,,0.00,weatherlink.com 1.10,2013-01-19 10:14:00,
2013-01-19 04:29:00,40.4,36.0,30.36,NNE,25,0.0,1.0,83,0.00,,,0.00,weatherlink.com 1.10,2013-01-19 10:29:00,
2013-01-19 04:44:00,40.5,35.0,30.36,NE,51,0.0,1.0,82,0.00,,,0.00,weatherlink.com 1.10,2013-01-19 10:44:00,
2013-01-19 04:59:00,40.7,36.0,30.36,NE,54,0.0,1.0,82,0.00,,,0.00,weatherlink.com 1.10,2013-01-19 10:59:00,
2013-01-19 05:14:00,40.5,36.0,30.35,ENE,68,1.0,1.0,83,0.00,,,0.00,weatherlink.com 1.10,2013-01-19 11:14:00,
2013-01-19 06:59:00,38.7,35.0,30.37,NE,43,1.0,2.0,85,0.00,,,0.00,weatherlink.com 1.10,2013-01-19 12:59:00,
2013-01-19 07:14:00,38.7,35.0,30.38,NNE,28,0.0,2.0,85,0.00,,,0.00,weatherlink.com 1.10,2013-01-19 13:14:00,
2013-01-19 07:29:00,39.2,35.0,30.38,NE,43,1.0,2.0,84,0.00,,,0.00,weatherlink.com 1.10,2013-01-19 13:29:00,
2013-01-19 07:44:00,40.6,36.0,30.38,ENE,60,1.0,4.0,82,0.00,,,0.00,weatherlink.com 1.10,2013-01-19 13:44:00,
2013-01-19 07:59:00,42.7,36.0,30.38,NE,37,1.0,3.0,77,0.00,,,0.00,weatherlink.com 1.10,2013-01-19 13:59:00,
2013-01-19 08:14:00,44.5,36.0,30.39,NE,52,3.0,4.0,71,0.00,,,0.00,weatherlink.com 1.10,2013-01-19 14:14:00,
2013-01-19 08:29:00,45.9,36.0,30.39,ENE,67,4.0,8.0,68,0.00,,,0.00,weatherlink.com 1.10,2013-01-19 14:29:00,
2013-01-19 08:44:00,47.2,35.0,30.39,ENE,77,4.0,5.0,64,0.00,,,0.00,weatherlink.com 1.10,2013-01-19 14:44:00,
2013-01-19 08:59:00,48.3,37.0,30.40,NE,47,0.0,6.0,65,0.00,,,0.00,weatherlink.com 1.10,2013-01-19 14:59:00,
2013-01-19 09:15:00,50.1,37.0,30.40,ENE,67,5.0,5.0,61,0.00,,,0.00,weatherlink.com 1.10,2013-01-19 15:15:00,
2013-01-19 09:30:00,51.4,38.0,30.40,NNE,32,2.0,5.0,60,0.00,,,0.00,weatherlink.com 1.10,2013-01-19 15:30:00,
2013-01-19 09:45:00,52.8,39.0,30.40,ESE,113,3.0,6.0,59,0.00,,,0.00,weatherlink.com 1.10,2013-01-19 15:45:00,
2013-01-19 10:00:00,53.7,39.0,30.39,ENE,70,4.0,5.0,59,0.00,,,0.00,weatherlink.com 1.10,2013-01-19 16:00:00,
2013-01-19 10:15:00,54.2,40.0,30.38,NNE,23,2.0,5.0,59,0.00,,,0.00,weatherlink.com 1.10,2013-01-19 16:15:00,
2013-01-19 10:30:00,55.2,40.0,30.38,ENE,72,4.0,5.0,58,0.00,,,0.00,weatherlink.com 1.10,2013-01-19 16:30:00,
2013-01-19 10:45:00,55.8,41.0,30.37,East,96,2.0,5.0,58,0.00,,,0.00,weatherlink.com 1.10,2013-01-19 16:45:00,
2013-01-19 11:00:00,57.1,42.0,30.36,NE,46,3.0,9.0,57,0.00,,,0.00,weatherlink.com 1.10,2013-01-19 17:00:00,
2013-01-19 11:15:00,57.8,42.0,30.36,North,8,3.0,7.0,56,0.00,,,0.00,weatherlink.com 1.10,2013-01-19 17:15:00,
2013-01-19 11:30:00,58.6,42.0,30.34,East,81,3.0,5.0,55,0.00,,,0.00,weatherlink.com 1.10,2013-01-19 17:30:00,
2013-01-19 12:00:00,60.4,43.0,30.33,NE,34,3.0,4.0,54,0.00,,,0.00,weatherlink.com 1.10,2013-01-19 18:00:00,
2013-01-19 12:15:00,60.3,43.0,30.32,WSW,253,0.0,5.0,53,0.00,,,0.00,weatherlink.com 1.10,2013-01-19 18:15:00,
2013-01-19 12:30:00,60.9,44.0,30.30,ENE,72,4.0,5.0,55,0.00,,,0.00,weatherlink.com 1.10,2013-01-19 18:30:00,
2013-01-19 12:45:00,61.2,44.0,30.29,East,92,1.0,4.0,54,0.00,,,0.00,weatherlink.com 1.10,2013-01-19 18:45:00,
2013-01-19 13:45:00,62.8,45.0,30.26,SSE,162,1.0,2.0,53,0.00,,,0.00,weatherlink.com 1.10,2013-01-19 19:45:00,
2013-01-19 14:00:00,62.5,45.0,30.26,East,95,0.0,3.0,54,0.00,,,0.00,weatherlink.com 1.10,2013-01-19 20:00:00,
2013-01-19 14:15:00,63.3,45.0,30.26,WNW,283,2.0,2.0,52,0.00,,,0.00,weatherlink.com 1.10,2013-01-19 20:15:00,
2013-01-19 14:30:00,62.6,45.0,30.26,NNW,339,1.0,3.0,53,0.00,,,0.00,weatherlink.com 1.10,2013-01-19 20:30:00,
2013-01-19 15:00:00,62.8,45.0,30.25,ESE,106,0.0,2.0,53,0.00,,,0.00,weatherlink.com 1.10,2013-01-19 21:00:00,
2013-01-19 15:16:00,62.9,46.0,30.25,WSW,257,0.0,1.0,54,0.00,,,0.00,weatherlink.com 1.10,2013-01-19 21:16:00,
2013-01-19 15:31:00,63.8,47.0,30.25,SW,217,1.0,2.0,54,0.00,,,0.00,weatherlink.com 1.10,2013-01-19 21:31:00,
2013-01-19 16:01:00,62.4,46.0,30.25,SSE,160,0.0,1.0,55,0.00,,,0.00,weatherlink.com 1.10,2013-01-19 22:01:00,
2013-01-19 16:16:00,62.6,46.0,30.25,SSW,212,0.0,1.0,56,0.00,,,0.00,weatherlink.com 1.10,2013-01-19 22:16:00,
2013-01-19 16:31:00,62.4,46.0,30.25,SSW,212,0.0,1.0,56,0.00,,,0.00,weatherlink.com 1.10,2013-01-19 22:31:00,
2013-01-19 16:46:00,61.6,47.0,30.25,SSW,206,0.0,0.0,59,0.00,,,0.00,weatherlink.com 1.10,2013-01-19 22:46:00,
2013-01-19 17:01:00,59.4,47.0,30.24,SSW,205,0.0,0.0,63,0.00,,,0.00,weatherlink.com 1.10,2013-01-19 23:01:00,
2013-01-19 17:16:00,57.2,47.0,30.24,SSE,156,0.0,1.0,69,0.00,,,0.00,weatherlink.com 1.10,2013-01-19 23:16:00,
2013-01-19 17:47:00,54.4,46.0,30.25,SSE,155,0.0,0.0,74,0.00,,,0.00,weatherlink.com 1.10,2013-01-19 23:47:00,
2013-01-19 19:03:00,49.1,45.0,30.27,SSE,162,0.0,1.0,85,0.00,,,0.00,weatherlink.com 1.10,2013-01-20 01:03:00,
2013-01-19 19:31:00,47.5,45.0,30.26,SSE,163,0.0,0.0,89,0.00,,,0.00,weatherlink.com 1.10,2013-01-20 01:31:00,
2013-01-19 20:01:00,45.9,44.0,30.27,SSE,162,0.0,0.0,91,0.00,,,0.00,weatherlink.com 1.10,2013-01-20 02:01:00,
2013-01-19 20:16:00,45.1,43.0,30.26,SSE,162,0.0,0.0,92,0.00,,,0.00,weatherlink.com 1.10,2013-01-20 02:16:00,
2013-01-19 20:46:00,44.8,43.0,30.26,ENE,74,0.0,1.0,94,0.00,,,0.00,weatherlink.com 1.10,2013-01-20 02:46:00,
2013-01-19 21:46:00,43.5,42.0,30.26,ENE,74,0.0,0.0,95,0.00,,,0.00,weatherlink.com 1.10,2013-01-20 03:46:00,
2013-01-19 22:01:00,43.4,42.0,30.26,ENE,74,0.0,0.0,95,0.00,,,0.00,weatherlink.com 1.10,2013-01-20 04:01:00,
2013-01-19 22:16:00,42.7,42.0,30.25,ENE,74,0.0,0.0,96,0.00,,,0.00,weatherlink.com 1.10,2013-01-20 04:16:00,
2013-01-19 22:31:00,42.4,41.0,30.25,ENE,74,0.0,0.0,96,0.00,,,0.00,weatherlink.com 1.10,2013-01-20 04:31:00,
2013-01-19 23:01:00,41.2,40.0,30.25,ENE,74,0.0,0.0,96,0.00,,,0.00,weatherlink.com 1.10,2013-01-20 05:01:00,
2013-01-19 23:16:00,41.1,40.0,30.26,ENE,74,0.0,0.0,97,0.00,,,0.00,weatherlink.com 1.10,2013-01-20 05:16:00,
2013-01-19 23:31:00,40.8,40.0,30.26,ENE,74,0.0,0.0,97,0.00,,,0.00,weatherlink.com 1.10,2013-01-20 05:31:00,
2013-01-19 23:46:00,41.7,41.0,30.27,ENE,74,0.0,0.0,98,0.00,,,0.00,weatherlink.com 1.10,2013-01-20 05:46:00,